Annawan, IL

11:44 PM CDT on September 14, 2014 (GMT -0500)
MesoWest I-80 @ Hennepin Canal IL US ILDOT | Change Station
CLOSE
Current Station
Personal Weather Station
Location: Sheffield, IL
Elevation: 632 ft
Nearby Weather Stations

Elev 632 ft 41.39 °N, 89.70 °W | Updated 48 minutes ago

Partly Cloudy
Partly Cloudy
50 °F
Feels Like 49 °F
N
4
Wind Variable Wind from South
Gusts 4.0 mph

Today
High -- | Low -- °F
--% Chance of Precip.
Yesterday
High -- | Low -- °F
Precip. -- in
6:39 AM 7:10 PM
Waning Gibbous, 59% visible
Pressure 30.18 in
Visibility 10.0 miles
Clouds Clear
Windchill 49 °F
Dew Point 48 °F
Humidity 93%
Rainfall -999.00 in
Snow Depth Not available.
UV 0 out of 12
Pollen 5.80 out of 12
Air Quality Not available.
Flu Activity Not available.
METAR KSQI 150435Z AUTO 00000KT 10SM CLR 09/07 A3018 RMK AO1

More Conditions Fewer Conditions

Pressure 30.18 in
Visibility 10.0 miles
Clouds Clear
Windchill 49 °F
Dew Point 48 °F
Humidity 93%
Rainfall -999.00 in
Snow Depth Not available.
UV 0 out of 12
Pollen 5.80 out of 12
Air Quality Not available.
Flu Activity Not available.
METAR KSQI 150435Z AUTO 00000KT 10SM CLR 09/07 A3018 RMK AO1

More Conditions Fewer Conditions

10-Day Weather Forecast

Almanac

Astronomy

Sep. 14, 2014 Rise Set
Actual Time 6:39 AM CDT 7:10 PM CDT
Civil Twilight 6:11 AM CDT 7:38 PM CDT
Nautical Twilight 5:38 AM CDT 8:11 PM CDT
Astronomical Twilight 5:04 AM CDT 8:44 PM CDT
Moon 10:59 PM CDT (9/14) 12:49 PM CDT (9/14)
Length of Visible Light 13h 27m
Length of Day
12h 31m
Tomorrow will be 2m 44s shorter.
Waning Gibbous, 59% of the Moon is Illuminated
Sep 15
Waning Gibbous
Sep 15
Last Quarter
Sep 24
New
Oct 1
First Quarter
Oct 8
Full

Yesterday's Extremes

State Highs State Lows

Community

WunderPhotos

Upload Photos

1,753,401 photos uploaded!

Nearby

Snow Depth

Station Depth Elevation
No new snow has been reported.

Earthquake Activity

City Distance Mag. Time & Date
No recent earthquake activity has been reported nearby.
Minimum magnitude displayed is 2.5.

Coastal Water Temperatures

Place Temperature
No Stations Reporting

Nearby Weather Stations